createdAt,value
2023-05-20T00:00:57.335Z,12.86
2023-05-20T00:03:25.099Z,12.86
2023-05-20T00:05:52.854Z,12.78
2023-05-20T00:08:20.512Z,12.42
2023-05-20T00:10:47.989Z,12.48
2023-05-20T00:13:15.515Z,12.59
2023-05-20T00:15:42.954Z,12.74
2023-05-20T00:18:11.737Z,12.51
2023-05-20T00:20:39.336Z,12.64
2023-05-20T00:23:06.868Z,12.62
2023-05-20T00:25:34.490Z,12.68
2023-05-20T00:28:02.160Z,12.65
2023-05-20T00:30:29.746Z,12.84
2023-05-20T00:32:57.257Z,12.51
2023-05-20T00:35:26.101Z,12.73
2023-05-20T00:37:53.534Z,12.86
2023-05-20T00:40:21.835Z,12.80
2023-05-20T00:42:49.337Z,12.92
2023-05-20T00:45:16.938Z,12.96
2023-05-20T00:47:45.042Z,12.91
2023-05-20T00:50:12.690Z,12.99
2023-05-20T00:52:45.100Z,12.82
2023-05-20T00:55:13.249Z,12.83
2023-05-20T00:57:41.037Z,12.88
2023-05-20T01:00:10.394Z,12.65
2023-05-20T01:02:37.964Z,12.54
2023-05-20T01:05:06.185Z,12.74
2023-05-20T01:07:34.233Z,12.79
2023-05-20T01:10:03.758Z,12.78
2023-05-20T01:12:36.996Z,12.80
2023-05-20T01:15:09.418Z,12.74
2023-05-20T01:17:40.256Z,12.68
2023-05-20T01:20:10.520Z,12.61
2023-05-20T01:22:40.277Z,12.55
2023-05-20T01:25:08.251Z,12.47
2023-05-20T01:27:35.850Z,12.44
2023-05-20T01:30:03.495Z,12.38
2023-05-20T01:32:35.872Z,12.34
2023-05-20T01:35:05.039Z,12.02
2023-05-20T01:37:33.415Z,12.28
2023-05-20T01:40:02.446Z,12.26
2023-05-20T01:42:30.276Z,12.47
2023-05-20T01:44:57.818Z,12.46
2023-05-20T01:47:25.683Z,12.51
2023-05-20T01:49:54.150Z,12.37
2023-05-20T01:52:21.926Z,12.46
2023-05-20T01:54:51.278Z,12.46
2023-05-20T01:57:20.885Z,12.35
2023-05-20T01:59:48.519Z,12.33
2023-05-20T02:02:16.311Z,12.18
2023-05-20T02:04:47.702Z,12.20
2023-05-20T02:07:15.569Z,12.27
2023-05-20T02:09:43.645Z,12.32
2023-05-20T02:12:16.326Z,12.47
2023-05-20T02:14:45.738Z,12.45
2023-05-20T02:17:14.551Z,12.25
2023-05-20T02:19:41.964Z,12.25
2023-05-20T02:22:09.676Z,12.43
2023-05-20T02:24:37.252Z,12.38
2023-05-20T02:27:06.262Z,12.36
2023-05-20T02:29:33.884Z,12.37
2023-05-20T02:32:02.641Z,11.99
2023-05-20T02:34:31.566Z,11.94
2023-05-20T02:36:59.105Z,11.79
2023-05-20T02:39:28.382Z,11.98
2023-05-20T02:41:56.261Z,12.09
2023-05-20T02:44:23.851Z,11.76
2023-05-20T02:46:51.411Z,11.64
2023-05-20T02:49:20.373Z,11.49
2023-05-20T02:51:47.852Z,11.71
2023-05-20T02:54:15.392Z,11.52
2023-05-20T02:56:42.885Z,11.84
2023-05-20T02:59:10.326Z,11.88
2023-05-20T03:01:37.834Z,11.55
2023-05-20T03:04:05.436Z,11.51
2023-05-20T03:06:34.269Z,11.64
2023-05-20T03:09:01.727Z,11.74
2023-05-20T03:11:29.161Z,11.79
2023-05-20T03:13:56.631Z,11.84
2023-05-20T03:16:25.288Z,11.48
2023-05-20T03:18:54.574Z,11.33
2023-05-20T03:21:23.907Z,11.44
2023-05-20T03:23:52.841Z,11.68
2023-05-20T03:26:21.261Z,11.86
2023-05-20T03:28:48.799Z,11.74
2023-05-20T03:31:16.332Z,11.92
2023-05-20T03:33:45.498Z,11.62
2023-05-20T03:36:13.084Z,11.84
2023-05-20T03:38:40.510Z,11.68
2023-05-20T03:41:09.362Z,11.93
2023-05-20T03:43:36.820Z,12.16
2023-05-20T03:46:04.388Z,12.25
2023-05-20T03:48:31.816Z,12.06
2023-05-20T03:50:59.300Z,12.28
2023-05-20T03:53:26.846Z,12.34
2023-05-20T03:55:54.338Z,12.23
2023-05-20T03:58:23.284Z,12.54
2023-05-20T04:00:50.798Z,12.40
2023-05-20T04:03:18.418Z,12.42
2023-05-20T04:05:46.140Z,12.48
2023-05-20T04:08:14.261Z,12.60
2023-05-20T04:10:42.613Z,12.69
2023-05-20T04:13:11.112Z,12.69
2023-05-20T04:15:39.954Z,12.56
2023-05-20T04:18:07.512Z,12.68
2023-05-20T04:20:35.238Z,12.78
2023-05-20T04:23:02.671Z,12.93
2023-05-20T04:25:30.121Z,13.02
2023-05-20T04:27:57.798Z,13.02
2023-05-20T04:30:25.726Z,13.02
2023-05-20T04:32:55.573Z,13.08
2023-05-20T04:35:26.074Z,13.11
2023-05-20T04:37:55.372Z,13.20
2023-05-20T04:40:23.051Z,12.57
2023-05-20T04:42:51.021Z,13.03
2023-05-20T04:45:18.748Z,13.20
2023-05-20T04:47:46.311Z,13.02
2023-05-20T04:50:15.267Z,13.38
2023-05-20T04:52:45.458Z,13.21
2023-05-20T04:55:15.391Z,13.43
2023-05-20T04:57:43.578Z,13.26
2023-05-20T05:00:13.238Z,13.57
2023-05-20T05:02:41.486Z,13.62
2023-05-20T05:05:09.593Z,13.72
2023-05-20T05:07:38.408Z,13.25
2023-05-20T05:10:06.616Z,13.60
2023-05-20T05:12:34.094Z,13.43
2023-05-20T05:15:01.548Z,13.79
2023-05-20T05:17:29.458Z,13.41
2023-05-20T05:19:56.980Z,13.72
2023-05-20T05:22:24.478Z,13.17
2023-05-20T05:24:53.302Z,13.19
2023-05-20T05:27:20.772Z,13.28
2023-05-20T05:29:48.198Z,13.73
2023-05-20T05:32:15.766Z,13.94
2023-05-20T05:34:43.587Z,14.04
2023-05-20T05:37:11.034Z,14.12
2023-05-20T05:39:38.475Z,13.75
2023-05-20T05:42:07.470Z,13.25
2023-05-20T05:44:34.941Z,13.40
2023-05-20T05:47:02.414Z,13.63
2023-05-20T05:49:29.915Z,13.72
2023-05-20T05:51:57.383Z,13.91
2023-05-20T05:54:24.984Z,14.12
2023-05-20T05:56:52.842Z,14.19
2023-05-20T05:59:21.637Z,14.16
2023-05-20T06:01:49.360Z,14.03
2023-05-20T06:04:16.962Z,14.29
2023-05-20T06:06:44.647Z,14.65
2023-05-20T06:09:12.134Z,14.28
2023-05-20T06:11:42.228Z,14.18
2023-05-20T06:14:09.710Z,14.00
2023-05-20T06:16:38.596Z,14.55
2023-05-20T06:19:06.490Z,14.80
2023-05-20T06:21:33.943Z,15.17
2023-05-20T06:24:01.363Z,15.47
2023-05-20T06:26:28.792Z,15.15
2023-05-20T06:28:56.231Z,14.89
2023-05-20T06:31:23.847Z,14.77
2023-05-20T06:33:52.703Z,14.79
2023-05-20T06:36:20.176Z,15.12
2023-05-20T06:38:47.699Z,14.72
2023-05-20T06:41:15.146Z,14.02
2023-05-20T06:43:42.606Z,14.33
2023-05-20T06:46:10.133Z,14.43
2023-05-20T06:48:37.637Z,14.43
2023-05-20T06:51:08.645Z,14.63
2023-05-20T06:53:36.253Z,14.49
2023-05-20T06:56:03.746Z,15.30
2023-05-20T06:58:31.518Z,16.21
2023-05-20T07:00:58.995Z,16.13
2023-05-20T07:03:26.592Z,16.37
2023-05-20T07:05:54.187Z,15.69
2023-05-20T07:08:22.973Z,15.04
2023-05-20T07:10:50.437Z,15.58
2023-05-20T07:13:18.204Z,15.62
2023-05-20T07:15:47.454Z,15.46
2023-05-20T07:18:14.974Z,14.92
2023-05-20T07:20:42.635Z,15.94
2023-05-20T07:23:10.102Z,15.76
2023-05-20T07:25:38.868Z,16.29
2023-05-20T07:28:06.386Z,16.44
2023-05-20T07:30:33.870Z,16.39
2023-05-20T07:33:01.365Z,16.19
2023-05-20T07:35:28.898Z,15.94
2023-05-20T07:37:56.463Z,15.98
2023-05-20T07:40:24.108Z,16.43
2023-05-20T07:42:52.939Z,16.12
2023-05-20T07:45:20.897Z,16.10
2023-05-20T07:47:48.790Z,16.20
2023-05-20T07:50:16.708Z,16.36
2023-05-20T07:52:55.187Z,16.21
2023-05-20T07:55:24.421Z,16.41
2023-05-20T07:57:53.204Z,16.22
2023-05-20T08:00:20.993Z,16.43
2023-05-20T08:02:48.555Z,16.66
2023-05-20T08:05:16.281Z,16.04
2023-05-20T08:07:43.740Z,16.48
2023-05-20T08:10:11.737Z,16.32
2023-05-20T08:12:39.240Z,16.97
2023-05-20T08:15:09.358Z,17.11
2023-05-20T08:17:36.812Z,17.13
2023-05-20T08:20:05.038Z,17.89
2023-05-20T08:22:32.917Z,18.46
2023-05-20T08:25:00.535Z,18.14
2023-05-20T08:27:27.968Z,17.90
2023-05-20T08:29:55.457Z,18.54
2023-05-20T08:32:24.229Z,17.98
2023-05-20T08:34:51.714Z,18.66
2023-05-20T08:37:19.250Z,19.06
2023-05-20T08:39:49.123Z,18.62
2023-05-20T08:42:16.818Z,18.32
2023-05-20T08:44:47.871Z,18.26
2023-05-20T08:47:15.394Z,18.37
2023-05-20T08:49:44.204Z,19.16
2023-05-20T08:52:14.131Z,18.98
2023-05-20T08:54:46.076Z,18.63
2023-05-20T08:57:13.958Z,17.81
2023-05-20T08:59:44.075Z,18.81
2023-05-20T09:02:12.339Z,18.89
2023-05-20T09:04:40.012Z,18.79
2023-05-20T09:07:09.122Z,18.13
2023-05-20T09:09:36.948Z,18.73
2023-05-20T09:12:04.754Z,18.32
2023-05-20T09:14:32.461Z,17.90
2023-05-20T09:17:00.651Z,18.70
2023-05-20T09:19:28.171Z,19.44
2023-05-20T09:21:56.184Z,18.49
2023-05-20T09:24:28.139Z,18.54
2023-05-20T09:26:56.352Z,19.83
2023-05-20T09:29:24.415Z,20.12
2023-05-20T09:31:52.056Z,19.39
2023-05-20T09:34:21.886Z,19.07
2023-05-20T09:36:51.935Z,18.70
2023-05-20T09:39:23.660Z,18.49
2023-05-20T09:41:57.152Z,19.92
2023-05-20T09:44:25.200Z,19.96
2023-05-20T09:46:53.963Z,20.13
2023-05-20T09:49:23.544Z,19.32
2023-05-20T09:51:52.139Z,20.46
2023-05-20T09:54:20.496Z,20.38
2023-05-20T09:56:48.471Z,20.06
2023-05-20T09:59:18.069Z,20.05
2023-05-20T10:01:46.117Z,19.80
2023-05-20T10:04:17.132Z,19.80
2023-05-20T10:07:01.986Z,20.59
2023-05-20T10:09:43.486Z,20.26
2023-05-20T10:12:21.051Z,19.31
2023-05-20T10:15:00.051Z,19.80
2023-05-20T10:17:38.305Z,19.37
2023-05-20T10:20:11.718Z,20.10
2023-05-20T10:22:40.394Z,19.06
2023-05-20T10:25:25.599Z,18.76
2023-05-20T10:27:53.305Z,19.66
2023-05-20T10:30:23.352Z,19.66
2023-05-20T10:32:54.390Z,19.44
2023-05-20T10:35:26.250Z,20.21
2023-05-20T10:37:54.715Z,19.80
2023-05-20T10:40:23.444Z,20.26
2023-05-20T10:42:50.915Z,20.54
2023-05-20T10:45:30.102Z,20.46
2023-05-20T10:47:59.424Z,20.16
2023-05-20T10:50:28.912Z,20.53
2023-05-20T10:53:03.116Z,20.15
2023-05-20T10:55:37.172Z,20.75
2023-05-20T10:58:05.410Z,20.06
2023-05-20T11:00:36.279Z,20.67
2023-05-20T11:03:05.846Z,20.19
2023-05-20T11:05:33.810Z,19.72
2023-05-20T11:08:13.742Z,20.30
2023-05-20T11:10:53.020Z,20.80
2023-05-20T11:13:20.557Z,21.73
2023-05-20T11:15:50.434Z,20.75
2023-05-20T11:18:18.686Z,21.17
2023-05-20T11:20:47.856Z,21.05
2023-05-20T11:23:16.383Z,20.74
2023-05-20T11:25:43.976Z,20.85
2023-05-20T11:28:14.711Z,20.66
2023-05-20T11:30:43.724Z,21.97
2023-05-20T11:33:14.978Z,21.34
2023-05-20T11:35:46.534Z,21.64
2023-05-20T11:38:14.195Z,22.36
2023-05-20T11:40:50.576Z,21.37
2023-05-20T11:43:19.336Z,21.59
2023-05-20T11:45:48.467Z,21.40
2023-05-20T11:48:17.294Z,21.80
2023-05-20T11:50:45.925Z,21.59
2023-05-20T11:53:17.762Z,21.83
2023-05-20T11:55:51.019Z,22.57
2023-05-20T11:58:20.428Z,22.75
2023-05-20T12:00:54.687Z,22.55
2023-05-20T12:03:26.400Z,22.17
2023-05-20T12:05:54.248Z,22.21
2023-05-20T12:08:22.596Z,21.53
2023-05-20T12:10:50.099Z,21.48
2023-05-20T12:13:17.876Z,22.58
2023-05-20T12:15:45.632Z,23.22
2023-05-20T12:18:13.146Z,23.00
2023-05-20T12:20:41.928Z,22.68
2023-05-20T12:23:09.349Z,21.88
2023-05-20T12:25:36.808Z,22.49
2023-05-20T12:28:04.407Z,22.84
2023-05-20T12:30:32.087Z,22.73
2023-05-20T12:32:59.668Z,22.30
2023-05-20T12:35:38.195Z,21.57
2023-05-20T12:38:07.395Z,22.64
2023-05-20T12:40:35.662Z,22.36
2023-05-20T12:43:04.535Z,22.38
2023-05-20T12:45:32.574Z,23.45
2023-05-20T12:48:00.494Z,22.97
2023-05-20T12:50:28.315Z,23.05
2023-05-20T12:52:55.842Z,23.44
2023-05-20T12:55:25.073Z,23.42
2023-05-20T12:57:52.552Z,22.69
2023-05-20T13:00:19.995Z,22.22
2023-05-20T13:02:48.207Z,22.39
2023-05-20T13:05:15.928Z,22.94
2023-05-20T13:07:43.505Z,23.20
2023-05-20T13:10:14.853Z,23.63
2023-05-20T13:12:45.955Z,22.96
2023-05-20T13:15:14.518Z,22.35
2023-05-20T13:17:43.403Z,21.72
2023-05-20T13:20:11.953Z,21.88
2023-05-20T13:22:39.413Z,22.44
2023-05-20T13:25:07.803Z,22.68
2023-05-20T13:27:35.369Z,22.74
2023-05-20T13:30:06.188Z,22.84
2023-05-20T13:32:33.754Z,22.20
2023-05-20T13:35:01.376Z,22.60
2023-05-20T13:37:28.887Z,22.96
2023-05-20T13:39:56.395Z,23.27
2023-05-20T13:42:23.928Z,22.72
2023-05-20T13:44:51.362Z,22.92
2023-05-20T13:47:20.232Z,23.01
2023-05-20T13:49:47.741Z,22.26
2023-05-20T13:52:15.156Z,22.29
2023-05-20T13:54:42.979Z,21.74
2023-05-20T13:57:10.556Z,21.67
2023-05-20T13:59:38.603Z,21.45
2023-05-20T14:02:06.299Z,21.40
2023-05-20T14:04:38.052Z,21.13
2023-05-20T14:07:07.138Z,21.48
2023-05-20T14:09:36.809Z,21.71
2023-05-20T14:12:04.688Z,21.62
2023-05-20T14:14:32.114Z,22.22
2023-05-20T14:16:59.555Z,22.26
2023-05-20T14:19:27.519Z,21.81
2023-05-20T14:21:56.280Z,21.85
2023-05-20T14:24:23.981Z,22.07
2023-05-20T14:26:51.495Z,22.09
2023-05-20T14:29:18.919Z,22.12
2023-05-20T14:31:46.416Z,22.10
2023-05-20T14:34:13.893Z,21.78
2023-05-20T14:36:41.744Z,22.06
2023-05-20T14:39:10.630Z,22.46
2023-05-20T14:41:38.117Z,22.29
2023-05-20T14:44:05.940Z,22.08
2023-05-20T14:46:33.467Z,22.12
2023-05-20T14:49:01.377Z,22.35
2023-05-20T14:51:28.852Z,22.33
2023-05-20T14:53:56.300Z,22.17
2023-05-20T14:56:30.281Z,22.07
2023-05-20T14:58:57.722Z,22.10
2023-05-20T15:01:25.154Z,22.08
2023-05-20T15:03:52.645Z,21.51
2023-05-20T15:06:20.206Z,21.29
2023-05-20T15:08:47.761Z,21.37
2023-05-20T15:11:15.201Z,21.49
2023-05-20T15:13:46.265Z,21.63
2023-05-20T15:16:14.339Z,21.75
2023-05-20T15:18:41.910Z,21.73
2023-05-20T15:21:09.348Z,22.30
2023-05-20T15:23:37.000Z,22.13
2023-05-20T15:26:04.519Z,21.95
2023-05-20T15:28:31.995Z,21.92
2023-05-20T15:31:00.763Z,21.66
2023-05-20T15:33:28.315Z,21.47
2023-05-20T15:35:55.861Z,21.68
2023-05-20T15:38:23.387Z,21.43
2023-05-20T15:40:51.085Z,21.21
2023-05-20T15:43:18.931Z,21.46
2023-05-20T15:45:48.274Z,21.44
2023-05-20T15:48:17.269Z,21.55
2023-05-20T15:50:44.774Z,21.45
2023-05-20T15:53:12.206Z,21.27
2023-05-20T15:55:39.663Z,21.39
2023-05-20T15:58:07.493Z,21.22
2023-05-20T16:00:35.329Z,21.04
2023-05-20T16:03:03.110Z,21.06
2023-05-20T16:05:31.993Z,21.23
2023-05-20T16:07:59.476Z,21.13
2023-05-20T16:10:32.425Z,21.25
2023-05-20T16:13:00.458Z,21.14
2023-05-20T16:15:28.166Z,20.96
2023-05-20T16:17:55.691Z,21.19
2023-05-20T16:20:23.410Z,21.50
2023-05-20T16:22:52.181Z,21.54
2023-05-20T16:25:19.638Z,21.84
2023-05-20T16:27:47.068Z,22.07
2023-05-20T16:30:14.567Z,22.05
2023-05-20T16:32:42.167Z,21.51
2023-05-20T16:35:10.052Z,21.42
2023-05-20T16:37:37.464Z,21.07
2023-05-20T16:40:09.478Z,20.98
2023-05-20T16:42:37.710Z,20.96
2023-05-20T16:45:05.984Z,21.39
2023-05-20T16:47:34.092Z,21.29
2023-05-20T16:50:01.565Z,20.80
2023-05-20T16:52:29.042Z,20.66
2023-05-20T16:54:58.527Z,20.71
2023-05-20T16:57:27.290Z,21.09
2023-05-20T16:59:54.701Z,20.78
2023-05-20T17:02:22.188Z,20.86
2023-05-20T17:04:49.743Z,20.82
2023-05-20T17:07:17.407Z,20.99
2023-05-20T17:09:44.847Z,20.65
2023-05-20T17:12:15.957Z,20.75
2023-05-20T17:14:44.760Z,20.64
2023-05-20T17:17:13.942Z,20.78
2023-05-20T17:19:41.532Z,20.31
2023-05-20T17:22:09.006Z,20.60
2023-05-20T17:24:36.524Z,20.58
2023-05-20T17:27:05.920Z,20.46
2023-05-20T17:29:33.846Z,20.74
2023-05-20T17:32:02.623Z,20.66
2023-05-20T17:34:30.442Z,20.66
2023-05-20T17:36:58.198Z,20.34
2023-05-20T17:39:25.644Z,20.01
2023-05-20T17:41:53.047Z,20.09
2023-05-20T17:44:20.467Z,19.85
2023-05-20T17:46:48.668Z,19.99
2023-05-20T17:49:17.733Z,19.91
2023-05-20T17:51:46.103Z,19.93
2023-05-20T17:54:13.883Z,19.85
2023-05-20T17:56:42.019Z,19.59
2023-05-20T17:59:09.546Z,19.54
2023-05-20T18:01:37.426Z,19.43
2023-05-20T18:04:05.866Z,19.30
2023-05-20T18:06:35.425Z,19.32
2023-05-20T18:09:04.533Z,19.44
2023-05-20T18:11:32.772Z,19.40
2023-05-20T18:14:00.395Z,19.08
2023-05-20T18:16:29.101Z,19.10
2023-05-20T18:18:57.372Z,19.14
2023-05-20T18:21:26.030Z,18.80
2023-05-20T18:23:54.849Z,18.55
2023-05-20T18:26:22.585Z,18.64
2023-05-20T18:28:50.984Z,18.63
2023-05-20T18:31:18.510Z,18.57
2023-05-20T18:33:45.975Z,18.49
2023-05-20T18:36:13.896Z,18.40
2023-05-20T18:38:41.881Z,18.34
2023-05-20T18:41:10.785Z,18.12
2023-05-20T18:43:38.227Z,18.22
2023-05-20T18:46:06.387Z,18.28
2023-05-20T18:48:33.837Z,18.17
2023-05-20T18:51:01.585Z,18.24
2023-05-20T18:53:29.051Z,18.16
2023-05-20T18:56:01.264Z,17.97
2023-05-20T18:58:30.567Z,18.12
2023-05-20T19:00:58.105Z,18.07
2023-05-20T19:03:26.345Z,18.04
2023-05-20T19:05:54.302Z,17.79
2023-05-20T19:08:23.125Z,17.60
2023-05-20T19:10:50.744Z,17.67
2023-05-20T19:13:18.174Z,17.68
2023-05-20T19:15:46.941Z,17.67
2023-05-20T19:18:14.405Z,17.68
2023-05-20T19:20:41.838Z,17.67
2023-05-20T19:23:09.286Z,17.65
2023-05-20T19:25:36.950Z,17.55
2023-05-20T19:28:05.047Z,17.49
2023-05-20T19:30:32.678Z,17.37
2023-05-20T19:33:03.656Z,17.45
2023-05-20T19:35:31.289Z,17.25
2023-05-20T19:37:58.825Z,17.40
2023-05-20T19:40:26.550Z,17.35
2023-05-20T19:42:54.053Z,17.32
2023-05-20T19:45:26.948Z,17.20
2023-05-20T19:47:54.543Z,17.27
2023-05-20T19:50:23.510Z,17.02
2023-05-20T19:52:51.172Z,17.05
2023-05-20T19:55:18.596Z,17.01
2023-05-20T19:57:46.674Z,17.10
2023-05-20T20:00:15.618Z,16.98
2023-05-20T20:02:43.121Z,17.04
2023-05-20T20:05:10.779Z,16.85
2023-05-20T20:07:39.580Z,16.86
2023-05-20T20:10:08.555Z,16.91
2023-05-20T20:12:36.095Z,16.75
2023-05-20T20:15:03.890Z,16.92
2023-05-20T20:17:33.406Z,16.87
2023-05-20T20:20:01.043Z,16.92
2023-05-20T20:22:31.975Z,16.81
2023-05-20T20:25:00.740Z,16.82
2023-05-20T20:27:28.293Z,16.65
2023-05-20T20:29:55.999Z,16.71
2023-05-20T20:32:24.190Z,16.58
2023-05-20T20:34:52.316Z,16.39
2023-05-20T20:37:22.999Z,16.45
2023-05-20T20:39:50.987Z,16.50
2023-05-20T20:42:19.871Z,16.34
2023-05-20T20:44:48.384Z,16.32
2023-05-20T20:47:16.002Z,16.25
2023-05-20T20:49:43.419Z,16.18
2023-05-20T20:52:11.119Z,16.20
2023-05-20T20:54:39.566Z,16.20
2023-05-20T20:57:09.176Z,16.16
2023-05-20T20:59:38.343Z,16.00
2023-05-20T21:02:09.929Z,15.96
2023-05-20T21:04:39.774Z,16.00
2023-05-20T21:07:07.344Z,15.98
2023-05-20T21:09:35.215Z,15.88
2023-05-20T21:12:06.442Z,15.96
2023-05-20T21:14:33.884Z,15.84
2023-05-20T21:17:02.695Z,15.95
2023-05-20T21:19:30.617Z,15.88
2023-05-20T21:21:58.063Z,15.79
2023-05-20T21:24:25.536Z,15.84
2023-05-20T21:26:52.927Z,15.84
2023-05-20T21:29:20.517Z,15.68
2023-05-20T21:31:48.329Z,15.70
2023-05-20T21:34:17.088Z,15.57
2023-05-20T21:36:44.565Z,15.60
2023-05-20T21:39:11.972Z,15.60
2023-05-20T21:41:39.416Z,15.69
2023-05-20T21:44:07.064Z,15.65
2023-05-20T21:46:34.836Z,15.57
2023-05-20T21:49:02.307Z,15.57
2023-05-20T21:51:31.645Z,15.43
2023-05-20T21:53:59.112Z,15.40
2023-05-20T21:56:27.354Z,15.34
2023-05-20T21:58:54.777Z,15.23
2023-05-20T22:01:22.271Z,15.39
2023-05-20T22:03:51.456Z,15.35
2023-05-20T22:06:21.347Z,15.40
2023-05-20T22:08:50.160Z,15.37
2023-05-20T22:11:17.643Z,15.29
2023-05-20T22:13:45.082Z,14.95
2023-05-20T22:16:12.582Z,14.92
2023-05-20T22:18:40.019Z,15.05
2023-05-20T22:21:07.486Z,15.07
2023-05-20T22:23:34.939Z,14.98
2023-05-20T22:26:04.838Z,14.95
2023-05-20T22:28:32.279Z,14.82
2023-05-20T22:30:59.785Z,14.56
2023-05-20T22:33:27.357Z,14.72
2023-05-20T22:35:54.778Z,14.73
2023-05-20T22:38:22.262Z,14.80
2023-05-20T22:40:49.690Z,14.71
2023-05-20T22:43:18.549Z,14.74
2023-05-20T22:45:46.073Z,14.64
2023-05-20T22:48:13.521Z,14.41
2023-05-20T22:50:41.450Z,14.00
2023-05-20T22:53:08.867Z,14.16
2023-05-20T22:55:38.705Z,14.25
2023-05-20T22:58:07.977Z,14.30
2023-05-20T23:00:37.104Z,14.38
2023-05-20T23:03:04.698Z,14.36
2023-05-20T23:05:32.276Z,14.35
2023-05-20T23:07:59.934Z,14.27
2023-05-20T23:10:27.429Z,14.06
2023-05-20T23:12:54.860Z,14.09
2023-05-20T23:15:24.461Z,14.04
2023-05-20T23:17:53.304Z,14.08
2023-05-20T23:20:22.219Z,14.06
2023-05-20T23:22:49.721Z,14.08
2023-05-20T23:25:17.542Z,14.11
2023-05-20T23:27:45.006Z,14.03
2023-05-20T23:30:12.754Z,13.99
2023-05-20T23:32:40.271Z,13.86
2023-05-20T23:35:11.606Z,13.76
2023-05-20T23:37:40.914Z,13.60
2023-05-20T23:40:10.140Z,13.21
2023-05-20T23:42:37.637Z,13.51
2023-05-20T23:45:05.848Z,13.49
2023-05-20T23:47:34.217Z,13.63
2023-05-20T23:50:01.654Z,13.60
2023-05-20T23:52:30.871Z,13.55
2023-05-20T23:54:58.576Z,13.72
2023-05-20T23:57:26.392Z,13.64
2023-05-20T23:59:53.842Z,13.26
